sensor_id;sensor_type;location;lat;lon;timestamp;temperature;humidity
20726;DHT22;10524;48.132;8.518;2023-04-03T00:00:28;1.20;99.90
20726;DHT22;10524;48.132;8.518;2023-04-03T00:02:54;1.20;99.90
20726;DHT22;10524;48.132;8.518;2023-04-03T00:05:20;1.20;99.90
20726;DHT22;10524;48.132;8.518;2023-04-03T00:07:46;1.20;99.90
20726;DHT22;10524;48.132;8.518;2023-04-03T00:10:12;1.20;99.90
20726;DHT22;10524;48.132;8.518;2023-04-03T00:12:39;1.10;99.90
20726;DHT22;10524;48.132;8.518;2023-04-03T00:15:05;1.00;99.90
20726;DHT22;10524;48.132;8.518;2023-04-03T00:17:30;1.10;99.90
20726;DHT22;10524;48.132;8.518;2023-04-03T00:19:56;1.10;99.90
20726;DHT22;10524;48.132;8.518;2023-04-03T00:22:21;1.10;99.90
20726;DHT22;10524;48.132;8.518;2023-04-03T00:24:47;1.00;99.90
20726;DHT22;10524;48.132;8.518;2023-04-03T00:27:13;1.00;99.90
20726;DHT22;10524;48.132;8.518;2023-04-03T00:29:38;1.00;99.90
20726;DHT22;10524;48.132;8.518;2023-04-03T00:32:04;0.90;99.90
20726;DHT22;10524;48.132;8.518;2023-04-03T00:34:30;0.90;99.90
20726;DHT22;10524;48.132;8.518;2023-04-03T00:36:55;0.90;99.90
20726;DHT22;10524;48.132;8.518;2023-04-03T00:39:22;0.90;99.90
20726;DHT22;10524;48.132;8.518;2023-04-03T00:41:47;0.90;99.90
20726;DHT22;10524;48.132;8.518;2023-04-03T00:47:07;0.80;99.90
20726;DHT22;10524;48.132;8.518;2023-04-03T00:49:34;0.90;99.90
20726;DHT22;10524;48.132;8.518;2023-04-03T00:52:01;0.80;99.90
20726;DHT22;10524;48.132;8.518;2023-04-03T00:54:27;0.90;99.90
20726;DHT22;10524;48.132;8.518;2023-04-03T00:56:54;0.90;99.90
20726;DHT22;10524;48.132;8.518;2023-04-03T00:59:25;0.80;99.90
20726;DHT22;10524;48.132;8.518;2023-04-03T01:01:53;0.90;99.90
20726;DHT22;10524;48.132;8.518;2023-04-03T01:04:27;0.90;99.90
20726;DHT22;10524;48.132;8.518;2023-04-03T01:06:55;0.90;99.90
20726;DHT22;10524;48.132;8.518;2023-04-03T01:09:22;0.90;99.90
20726;DHT22;10524;48.132;8.518;2023-04-03T01:11:48;0.90;99.90
20726;DHT22;10524;48.132;8.518;2023-04-03T01:14:13;0.90;99.90
20726;DHT22;10524;48.132;8.518;2023-04-03T01:16:39;0.90;99.90
20726;DHT22;10524;48.132;8.518;2023-04-03T01:19:10;0.90;99.90
20726;DHT22;10524;48.132;8.518;2023-04-03T01:24:27;0.80;99.90
20726;DHT22;10524;48.132;8.518;2023-04-03T01:26:54;0.80;99.90
20726;DHT22;10524;48.132;8.518;2023-04-03T01:29:20;0.80;99.90
20726;DHT22;10524;48.132;8.518;2023-04-03T01:31:56;0.90;99.90
20726;DHT22;10524;48.132;8.518;2023-04-03T01:34:22;0.90;99.90
20726;DHT22;10524;48.132;8.518;2023-04-03T01:36:48;0.90;99.90
20726;DHT22;10524;48.132;8.518;2023-04-03T01:39:14;0.90;99.90
20726;DHT22;10524;48.132;8.518;2023-04-03T01:41:40;0.80;99.90
20726;DHT22;10524;48.132;8.518;2023-04-03T01:44:06;0.80;99.90
20726;DHT22;10524;48.132;8.518;2023-04-03T01:46:32;0.80;99.90
20726;DHT22;10524;48.132;8.518;2023-04-03T01:48:58;0.80;99.90
20726;DHT22;10524;48.132;8.518;2023-04-03T01:51:23;0.90;99.90
20726;DHT22;10524;48.132;8.518;2023-04-03T01:53:49;0.90;99.90
20726;DHT22;10524;48.132;8.518;2023-04-03T01:56:15;0.80;99.90
20726;DHT22;10524;48.132;8.518;2023-04-03T01:58:40;0.80;99.90
20726;DHT22;10524;48.132;8.518;2023-04-03T02:01:06;0.80;99.90
20726;DHT22;10524;48.132;8.518;2023-04-03T02:03:32;0.80;99.90
20726;DHT22;10524;48.132;8.518;2023-04-03T02:05:58;0.80;99.90
20726;DHT22;10524;48.132;8.518;2023-04-03T02:08:23;0.80;99.90
20726;DHT22;10524;48.132;8.518;2023-04-03T02:10:50;0.80;99.90
20726;DHT22;10524;48.132;8.518;2023-04-03T02:13:16;0.80;99.90
20726;DHT22;10524;48.132;8.518;2023-04-03T02:15:42;0.70;99.90
20726;DHT22;10524;48.132;8.518;2023-04-03T02:18:08;0.70;99.90
20726;DHT22;10524;48.132;8.518;2023-04-03T02:20:34;0.70;99.90
20726;DHT22;10524;48.132;8.518;2023-04-03T02:23:00;0.70;99.90
20726;DHT22;10524;48.132;8.518;2023-04-03T02:25:26;0.70;99.90
20726;DHT22;10524;48.132;8.518;2023-04-03T02:27:52;0.80;99.90
20726;DHT22;10524;48.132;8.518;2023-04-03T02:30:18;0.70;99.90
20726;DHT22;10524;48.132;8.518;2023-04-03T02:32:43;0.80;99.90
20726;DHT22;10524;48.132;8.518;2023-04-03T02:35:10;0.80;99.90
20726;DHT22;10524;48.132;8.518;2023-04-03T02:37:36;0.80;99.90
20726;DHT22;10524;48.132;8.518;2023-04-03T02:40:03;0.80;99.90
20726;DHT22;10524;48.132;8.518;2023-04-03T02:42:29;0.70;99.90
20726;DHT22;10524;48.132;8.518;2023-04-03T02:44:55;0.80;99.90
20726;DHT22;10524;48.132;8.518;2023-04-03T02:47:21;0.80;99.90
20726;DHT22;10524;48.132;8.518;2023-04-03T02:49:47;0.80;99.90
20726;DHT22;10524;48.132;8.518;2023-04-03T02:52:14;0.80;99.90
20726;DHT22;10524;48.132;8.518;2023-04-03T02:54:39;0.70;99.90
20726;DHT22;10524;48.132;8.518;2023-04-03T02:57:06;0.70;99.90
20726;DHT22;10524;48.132;8.518;2023-04-03T02:59:35;0.60;99.90
20726;DHT22;10524;48.132;8.518;2023-04-03T03:02:00;0.60;99.90
20726;DHT22;10524;48.132;8.518;2023-04-03T03:04:26;0.60;99.90
20726;DHT22;10524;48.132;8.518;2023-04-03T03:06:52;0.60;99.90
20726;DHT22;10524;48.132;8.518;2023-04-03T03:09:18;0.60;99.90
20726;DHT22;10524;48.132;8.518;2023-04-03T03:11:43;0.60;99.90
20726;DHT22;10524;48.132;8.518;2023-04-03T03:14:09;0.50;99.90
20726;DHT22;10524;48.132;8.518;2023-04-03T03:16:35;0.50;99.90
20726;DHT22;10524;48.132;8.518;2023-04-03T03:19:00;0.50;99.90
20726;DHT22;10524;48.132;8.518;2023-04-03T03:21:26;0.40;99.90
20726;DHT22;10524;48.132;8.518;2023-04-03T03:23:52;0.50;99.90
20726;DHT22;10524;48.132;8.518;2023-04-03T03:26:17;0.40;99.90
20726;DHT22;10524;48.132;8.518;2023-04-03T03:28:43;0.40;99.90
20726;DHT22;10524;48.132;8.518;2023-04-03T03:31:09;0.50;99.90
20726;DHT22;10524;48.132;8.518;2023-04-03T03:33:35;0.40;99.90
20726;DHT22;10524;48.132;8.518;2023-04-03T03:36:01;0.40;99.90
20726;DHT22;10524;48.132;8.518;2023-04-03T03:38:26;0.40;99.90
20726;DHT22;10524;48.132;8.518;2023-04-03T03:40:52;0.40;99.90
20726;DHT22;10524;48.132;8.518;2023-04-03T03:43:18;0.40;99.90
20726;DHT22;10524;48.132;8.518;2023-04-03T03:45:46;0.40;99.90
20726;DHT22;10524;48.132;8.518;2023-04-03T03:48:14;0.40;99.90
20726;DHT22;10524;48.132;8.518;2023-04-03T03:50:40;0.40;99.90
20726;DHT22;10524;48.132;8.518;2023-04-03T03:53:06;0.40;99.90
20726;DHT22;10524;48.132;8.518;2023-04-03T03:55:31;0.40;99.90
20726;DHT22;10524;48.132;8.518;2023-04-03T03:57:57;0.40;99.90
20726;DHT22;10524;48.132;8.518;2023-04-03T04:00:23;0.40;99.90
20726;DHT22;10524;48.132;8.518;2023-04-03T04:02:48;0.30;99.90
20726;DHT22;10524;48.132;8.518;2023-04-03T04:05:14;0.30;99.90
20726;DHT22;10524;48.132;8.518;2023-04-03T04:07:40;0.30;99.90
20726;DHT22;10524;48.132;8.518;2023-04-03T04:10:06;0.40;99.90
20726;DHT22;10524;48.132;8.518;2023-04-03T04:12:31;0.40;99.90
20726;DHT22;10524;48.132;8.518;2023-04-03T04:14:57;0.40;99.90
20726;DHT22;10524;48.132;8.518;2023-04-03T04:17:22;0.30;99.90
20726;DHT22;10524;48.132;8.518;2023-04-03T04:19:48;0.30;99.90
20726;DHT22;10524;48.132;8.518;2023-04-03T04:22:14;0.30;99.90
20726;DHT22;10524;48.132;8.518;2023-04-03T04:24:39;0.30;99.90
20726;DHT22;10524;48.132;8.518;2023-04-03T04:27:05;0.30;99.90
20726;DHT22;10524;48.132;8.518;2023-04-03T04:29:31;0.30;99.90
20726;DHT22;10524;48.132;8.518;2023-04-03T04:32:01;0.30;99.90
20726;DHT22;10524;48.132;8.518;2023-04-03T04:34:28;0.30;99.90
20726;DHT22;10524;48.132;8.518;2023-04-03T04:36:53;0.30;99.90
20726;DHT22;10524;48.132;8.518;2023-04-03T04:39:19;0.30;99.90
20726;DHT22;10524;48.132;8.518;2023-04-03T04:41:45;0.30;99.90
20726;DHT22;10524;48.132;8.518;2023-04-03T04:44:10;0.30;99.90
20726;DHT22;10524;48.132;8.518;2023-04-03T04:46:36;0.30;99.90
20726;DHT22;10524;48.132;8.518;2023-04-03T04:49:02;0.30;99.90
20726;DHT22;10524;48.132;8.518;2023-04-03T04:51:27;0.30;99.90
20726;DHT22;10524;48.132;8.518;2023-04-03T04:53:53;0.30;99.90
20726;DHT22;10524;48.132;8.518;2023-04-03T04:56:18;0.30;99.90
20726;DHT22;10524;48.132;8.518;2023-04-03T04:58:44;0.30;99.90
20726;DHT22;10524;48.132;8.518;2023-04-03T05:01:11;0.30;99.90
20726;DHT22;10524;48.132;8.518;2023-04-03T05:03:37;0.30;99.90
20726;DHT22;10524;48.132;8.518;2023-04-03T05:06:02;0.30;99.90
20726;DHT22;10524;48.132;8.518;2023-04-03T05:08:28;0.30;99.90
20726;DHT22;10524;48.132;8.518;2023-04-03T05:10:54;0.30;99.90
20726;DHT22;10524;48.132;8.518;2023-04-03T05:13:20;0.30;99.90
20726;DHT22;10524;48.132;8.518;2023-04-03T05:15:46;0.30;99.90
20726;DHT22;10524;48.132;8.518;2023-04-03T05:18:12;0.30;99.90
20726;DHT22;10524;48.132;8.518;2023-04-03T05:20:38;0.30;99.90
20726;DHT22;10524;48.132;8.518;2023-04-03T05:23:04;0.30;99.90
20726;DHT22;10524;48.132;8.518;2023-04-03T05:25:29;0.30;99.90
20726;DHT22;10524;48.132;8.518;2023-04-03T05:27:55;0.30;99.90
20726;DHT22;10524;48.132;8.518;2023-04-03T05:30:21;0.30;99.90
20726;DHT22;10524;48.132;8.518;2023-04-03T05:32:47;0.30;99.90
20726;DHT22;10524;48.132;8.518;2023-04-03T05:35:13;0.30;99.90
20726;DHT22;10524;48.132;8.518;2023-04-03T05:37:39;0.30;99.90
20726;DHT22;10524;48.132;8.518;2023-04-03T05:40:06;0.30;99.90
20726;DHT22;10524;48.132;8.518;2023-04-03T05:42:32;0.30;99.90
20726;DHT22;10524;48.132;8.518;2023-04-03T05:44:57;0.30;99.90
20726;DHT22;10524;48.132;8.518;2023-04-03T05:47:23;0.30;99.90
20726;DHT22;10524;48.132;8.518;2023-04-03T05:49:48;0.30;99.90
20726;DHT22;10524;48.132;8.518;2023-04-03T05:52:23;0.30;99.90
20726;DHT22;10524;48.132;8.518;2023-04-03T05:54:50;0.40;99.90
20726;DHT22;10524;48.132;8.518;2023-04-03T05:57:16;0.40;99.90
20726;DHT22;10524;48.132;8.518;2023-04-03T05:59:43;0.40;99.90
20726;DHT22;10524;48.132;8.518;2023-04-03T06:02:13;0.30;99.90
20726;DHT22;10524;48.132;8.518;2023-04-03T06:04:39;0.20;99.90
20726;DHT22;10524;48.132;8.518;2023-04-03T06:07:06;0.20;99.90
20726;DHT22;10524;48.132;8.518;2023-04-03T06:09:33;0.20;99.90
20726;DHT22;10524;48.132;8.518;2023-04-03T06:11:59;0.20;99.90
20726;DHT22;10524;48.132;8.518;2023-04-03T06:14:25;0.10;99.90
20726;DHT22;10524;48.132;8.518;2023-04-03T06:16:52;0.20;99.90
20726;DHT22;10524;48.132;8.518;2023-04-03T06:19:18;0.20;99.90
20726;DHT22;10524;48.132;8.518;2023-04-03T06:21:43;0.20;99.90
20726;DHT22;10524;48.132;8.518;2023-04-03T06:24:14;0.20;99.90
20726;DHT22;10524;48.132;8.518;2023-04-03T06:26:40;0.20;99.90
20726;DHT22;10524;48.132;8.518;2023-04-03T06:29:06;0.30;99.90
20726;DHT22;10524;48.132;8.518;2023-04-03T06:31:32;0.30;99.90
20726;DHT22;10524;48.132;8.518;2023-04-03T06:33:58;0.40;99.90
20726;DHT22;10524;48.132;8.518;2023-04-03T06:36:24;0.40;99.90
20726;DHT22;10524;48.132;8.518;2023-04-03T06:38:49;0.40;99.90
20726;DHT22;10524;48.132;8.518;2023-04-03T06:41:15;0.40;99.90
20726;DHT22;10524;48.132;8.518;2023-04-03T06:43:42;0.50;99.90
20726;DHT22;10524;48.132;8.518;2023-04-03T06:46:17;0.50;99.90
20726;DHT22;10524;48.132;8.518;2023-04-03T06:48:44;0.50;99.90
20726;DHT22;10524;48.132;8.518;2023-04-03T06:51:30;0.50;99.90
20726;DHT22;10524;48.132;8.518;2023-04-03T06:53:59;0.50;99.90
20726;DHT22;10524;48.132;8.518;2023-04-03T06:56:26;0.60;99.90
20726;DHT22;10524;48.132;8.518;2023-04-03T06:58:53;0.60;99.90
20726;DHT22;10524;48.132;8.518;2023-04-03T07:01:20;0.50;99.90
20726;DHT22;10524;48.132;8.518;2023-04-03T07:03:47;0.50;99.90
20726;DHT22;10524;48.132;8.518;2023-04-03T07:06:14;0.50;99.90
20726;DHT22;10524;48.132;8.518;2023-04-03T07:08:40;0.60;99.90
20726;DHT22;10524;48.132;8.518;2023-04-03T07:11:06;0.60;99.90
20726;DHT22;10524;48.132;8.518;2023-04-03T07:13:32;0.70;99.90
20726;DHT22;10524;48.132;8.518;2023-04-03T07:15:58;0.80;99.90
20726;DHT22;10524;48.132;8.518;2023-04-03T07:18:24;0.90;99.90
20726;DHT22;10524;48.132;8.518;2023-04-03T07:20:50;0.90;99.90
20726;DHT22;10524;48.132;8.518;2023-04-03T07:23:16;1.00;99.90
20726;DHT22;10524;48.132;8.518;2023-04-03T07:25:47;1.10;99.90
20726;DHT22;10524;48.132;8.518;2023-04-03T07:28:13;1.10;99.90
20726;DHT22;10524;48.132;8.518;2023-04-03T07:30:50;1.10;99.90
20726;DHT22;10524;48.132;8.518;2023-04-03T07:33:18;1.20;99.90
20726;DHT22;10524;48.132;8.518;2023-04-03T07:35:44;1.20;99.90
20726;DHT22;10524;48.132;8.518;2023-04-03T07:38:10;1.30;99.90
20726;DHT22;10524;48.132;8.518;2023-04-03T07:40:36;1.40;99.90
20726;DHT22;10524;48.132;8.518;2023-04-03T07:43:02;1.50;99.90
20726;DHT22;10524;48.132;8.518;2023-04-03T07:45:28;1.70;99.90
20726;DHT22;10524;48.132;8.518;2023-04-03T07:47:54;1.70;99.90
20726;DHT22;10524;48.132;8.518;2023-04-03T07:50:20;1.80;99.90
20726;DHT22;10524;48.132;8.518;2023-04-03T07:52:46;2.10;99.90
20726;DHT22;10524;48.132;8.518;2023-04-03T07:55:12;2.40;99.90
20726;DHT22;10524;48.132;8.518;2023-04-03T07:57:37;2.80;99.90
20726;DHT22;10524;48.132;8.518;2023-04-03T08:00:04;2.90;99.90
20726;DHT22;10524;48.132;8.518;2023-04-03T08:02:30;3.30;99.90
20726;DHT22;10524;48.132;8.518;2023-04-03T08:04:58;3.60;99.90
20726;DHT22;10524;48.132;8.518;2023-04-03T08:07:24;3.80;99.90
20726;DHT22;10524;48.132;8.518;2023-04-03T08:09:49;4.00;99.90
20726;DHT22;10524;48.132;8.518;2023-04-03T08:12:16;4.20;99.90
20726;DHT22;10524;48.132;8.518;2023-04-03T08:14:41;4.10;99.90
20726;DHT22;10524;48.132;8.518;2023-04-03T08:17:08;4.00;99.90
20726;DHT22;10524;48.132;8.518;2023-04-03T08:19:39;3.90;99.90
20726;DHT22;10524;48.132;8.518;2023-04-03T08:22:05;3.70;99.90
20726;DHT22;10524;48.132;8.518;2023-04-03T08:24:34;3.70;99.90
20726;DHT22;10524;48.132;8.518;2023-04-03T08:27:00;3.80;99.90
20726;DHT22;10524;48.132;8.518;2023-04-03T08:29:26;3.90;99.90
20726;DHT22;10524;48.132;8.518;2023-04-03T08:31:52;3.60;99.90
20726;DHT22;10524;48.132;8.518;2023-04-03T08:34:18;3.50;99.90
20726;DHT22;10524;48.132;8.518;2023-04-03T08:36:44;3.60;99.90
20726;DHT22;10524;48.132;8.518;2023-04-03T08:39:11;3.50;99.90
20726;DHT22;10524;48.132;8.518;2023-04-03T08:41:44;3.30;99.90
20726;DHT22;10524;48.132;8.518;2023-04-03T08:44:23;3.70;99.90
20726;DHT22;10524;48.132;8.518;2023-04-03T08:47:18;3.90;99.90
20726;DHT22;10524;48.132;8.518;2023-04-03T08:49:51;4.00;99.90
20726;DHT22;10524;48.132;8.518;2023-04-03T08:55:14;4.00;99.90
20726;DHT22;10524;48.132;8.518;2023-04-03T08:57:43;4.30;99.90
20726;DHT22;10524;48.132;8.518;2023-04-03T09:00:18;4.50;99.90
20726;DHT22;10524;48.132;8.518;2023-04-03T09:02:46;4.40;99.90
20726;DHT22;10524;48.132;8.518;2023-04-03T09:05:18;4.40;99.90
20726;DHT22;10524;48.132;8.518;2023-04-03T09:07:49;4.00;99.90
20726;DHT22;10524;48.132;8.518;2023-04-03T09:10:24;4.20;99.90
20726;DHT22;10524;48.132;8.518;2023-04-03T09:15:44;3.90;99.90
20726;DHT22;10524;48.132;8.518;2023-04-03T09:18:17;4.40;99.90
20726;DHT22;10524;48.132;8.518;2023-04-03T09:20:49;4.70;99.90
20726;DHT22;10524;48.132;8.518;2023-04-03T09:23:42;4.20;99.90
20726;DHT22;10524;48.132;8.518;2023-04-03T09:26:19;3.90;99.90
20726;DHT22;10524;48.132;8.518;2023-04-03T09:28:46;4.10;99.90
20726;DHT22;10524;48.132;8.518;2023-04-03T09:31:20;4.30;99.90
20726;DHT22;10524;48.132;8.518;2023-04-03T09:33:49;4.20;99.90
20726;DHT22;10524;48.132;8.518;2023-04-03T09:36:37;4.00;99.90
20726;DHT22;10524;48.132;8.518;2023-04-03T09:39:11;3.90;99.90
20726;DHT22;10524;48.132;8.518;2023-04-03T09:41:37;3.50;99.90
20726;DHT22;10524;48.132;8.518;2023-04-03T09:44:04;3.40;99.90
20726;DHT22;10524;48.132;8.518;2023-04-03T09:46:45;3.30;99.90
20726;DHT22;10524;48.132;8.518;2023-04-03T09:49:11;3.80;99.90
20726;DHT22;10524;48.132;8.518;2023-04-03T09:51:37;4.30;99.90
20726;DHT22;10524;48.132;8.518;2023-04-03T09:54:36;4.90;99.90
20726;DHT22;10524;48.132;8.518;2023-04-03T09:57:08;5.00;99.90
20726;DHT22;10524;48.132;8.518;2023-04-03T09:59:34;4.50;99.90
20726;DHT22;10524;48.132;8.518;2023-04-03T10:02:24;4.40;99.90
20726;DHT22;10524;48.132;8.518;2023-04-03T10:04:48;4.50;99.90
20726;DHT22;10524;48.132;8.518;2023-04-03T10:07:46;4.60;99.90
20726;DHT22;10524;48.132;8.518;2023-04-03T10:10:16;4.50;99.90
20726;DHT22;10524;48.132;8.518;2023-04-03T10:12:45;4.70;99.90
20726;DHT22;10524;48.132;8.518;2023-04-03T10:15:16;5.30;99.90
20726;DHT22;10524;48.132;8.518;2023-04-03T10:17:57;5.50;99.90
20726;DHT22;10524;48.132;8.518;2023-04-03T10:20:44;5.30;99.90
20726;DHT22;10524;48.132;8.518;2023-04-03T10:23:26;5.30;99.90
20726;DHT22;10524;48.132;8.518;2023-04-03T10:31:44;5.00;99.90
20726;DHT22;10524;48.132;8.518;2023-04-03T10:34:30;4.70;99.90
20726;DHT22;10524;48.132;8.518;2023-04-03T10:40:05;5.00;99.90
20726;DHT22;10524;48.132;8.518;2023-04-03T10:42:53;4.70;99.90
20726;DHT22;10524;48.132;8.518;2023-04-03T10:45:47;5.10;99.90
20726;DHT22;10524;48.132;8.518;2023-04-03T10:48:16;5.20;99.90
20726;DHT22;10524;48.132;8.518;2023-04-03T10:51:23;4.60;99.90
20726;DHT22;10524;48.132;8.518;2023-04-03T10:56:37;4.30;99.90
20726;DHT22;10524;48.132;8.518;2023-04-03T11:01:56;3.90;99.90
20726;DHT22;10524;48.132;8.518;2023-04-03T11:04:26;4.00;99.90
20726;DHT22;10524;48.132;8.518;2023-04-03T11:07:08;4.00;99.90
20726;DHT22;10524;48.132;8.518;2023-04-03T11:09:40;4.30;99.90
20726;DHT22;10524;48.132;8.518;2023-04-03T11:12:18;4.50;99.90
20726;DHT22;10524;48.132;8.518;2023-04-03T11:14:47;4.70;99.90
20726;DHT22;10524;48.132;8.518;2023-04-03T11:17:31;4.80;99.90
20726;DHT22;10524;48.132;8.518;2023-04-03T11:20:28;4.90;99.90
20726;DHT22;10524;48.132;8.518;2023-04-03T11:23:22;4.80;99.90
20726;DHT22;10524;48.132;8.518;2023-04-03T11:25:53;4.30;99.90
20726;DHT22;10524;48.132;8.518;2023-04-03T11:28:19;4.20;99.90
20726;DHT22;10524;48.132;8.518;2023-04-03T11:38:41;5.40;99.90
20726;DHT22;10524;48.132;8.518;2023-04-03T11:41:09;5.40;99.90
20726;DHT22;10524;48.132;8.518;2023-04-03T11:43:41;6.10;99.90
20726;DHT22;10524;48.132;8.518;2023-04-03T11:46:07;6.10;99.90
20726;DHT22;10524;48.132;8.518;2023-04-03T11:53:53;5.40;99.90
20726;DHT22;10524;48.132;8.518;2023-04-03T12:04:12;5.40;99.90
20726;DHT22;10524;48.132;8.518;2023-04-03T12:14:55;5.00;99.90
20726;DHT22;10524;48.132;8.518;2023-04-03T12:17:26;5.00;99.90
20726;DHT22;10524;48.132;8.518;2023-04-03T12:19:52;5.00;99.90
20726;DHT22;10524;48.132;8.518;2023-04-03T12:22:20;4.80;99.90
20726;DHT22;10524;48.132;8.518;2023-04-03T12:24:51;4.60;99.90
20726;DHT22;10524;48.132;8.518;2023-04-03T12:46:17;5.00;99.90
20726;DHT22;10524;48.132;8.518;2023-04-03T12:48:55;5.10;99.90
20726;DHT22;10524;48.132;8.518;2023-04-03T12:51:39;5.20;99.90
20726;DHT22;10524;48.132;8.518;2023-04-03T12:54:38;4.90;99.90
20726;DHT22;10524;48.132;8.518;2023-04-03T12:59:35;5.00;99.90
20726;DHT22;10524;48.132;8.518;2023-04-03T13:02:02;5.10;99.90
20726;DHT22;10524;48.132;8.518;2023-04-03T13:04:31;5.20;99.90
20726;DHT22;10524;48.132;8.518;2023-04-03T13:06:57;5.00;99.90
20726;DHT22;10524;48.132;8.518;2023-04-03T13:09:28;4.80;99.90
20726;DHT22;10524;48.132;8.518;2023-04-03T13:12:02;4.70;99.90
20726;DHT22;10524;48.132;8.518;2023-04-03T13:14:29;5.00;99.90
20726;DHT22;10524;48.132;8.518;2023-04-03T13:17:05;4.90;99.90
20726;DHT22;10524;48.132;8.518;2023-04-03T13:19:31;4.90;99.90
20726;DHT22;10524;48.132;8.518;2023-04-03T13:22:16;4.90;99.90
20726;DHT22;10524;48.132;8.518;2023-04-03T13:24:49;5.30;99.90
20726;DHT22;10524;48.132;8.518;2023-04-03T13:27:16;5.30;99.90
20726;DHT22;10524;48.132;8.518;2023-04-03T13:29:42;5.40;99.90
20726;DHT22;10524;48.132;8.518;2023-04-03T13:32:19;5.30;99.90
20726;DHT22;10524;48.132;8.518;2023-04-03T13:34:45;4.60;99.90
20726;DHT22;10524;48.132;8.518;2023-04-03T13:37:32;4.50;99.90
20726;DHT22;10524;48.132;8.518;2023-04-03T13:42:31;4.70;99.90
20726;DHT22;10524;48.132;8.518;2023-04-03T13:45:29;4.60;99.90
20726;DHT22;10524;48.132;8.518;2023-04-03T13:48:17;4.80;99.90
20726;DHT22;10524;48.132;8.518;2023-04-03T13:51:03;4.90;99.90
20726;DHT22;10524;48.132;8.518;2023-04-03T13:53:31;4.70;99.90
20726;DHT22;10524;48.132;8.518;2023-04-03T13:58:31;4.70;99.90
20726;DHT22;10524;48.132;8.518;2023-04-03T14:01:10;4.60;99.90
20726;DHT22;10524;48.132;8.518;2023-04-03T14:06:07;4.50;99.90
20726;DHT22;10524;48.132;8.518;2023-04-03T14:08:33;4.30;99.90
20726;DHT22;10524;48.132;8.518;2023-04-03T14:10:59;4.50;99.90
20726;DHT22;10524;48.132;8.518;2023-04-03T14:13:25;4.50;99.90
20726;DHT22;10524;48.132;8.518;2023-04-03T14:15:51;4.40;99.90
20726;DHT22;10524;48.132;8.518;2023-04-03T14:18:19;4.30;99.90
20726;DHT22;10524;48.132;8.518;2023-04-03T14:20:47;4.30;99.90
20726;DHT22;10524;48.132;8.518;2023-04-03T14:23:12;4.20;99.90
20726;DHT22;10524;48.132;8.518;2023-04-03T14:25:38;4.10;99.90
20726;DHT22;10524;48.132;8.518;2023-04-03T14:28:21;4.20;99.90
20726;DHT22;10524;48.132;8.518;2023-04-03T14:30:49;4.30;99.90
20726;DHT22;10524;48.132;8.518;2023-04-03T14:33:19;4.30;99.90
20726;DHT22;10524;48.132;8.518;2023-04-03T14:35:45;4.30;99.90
20726;DHT22;10524;48.132;8.518;2023-04-03T14:38:26;4.20;99.90
20726;DHT22;10524;48.132;8.518;2023-04-03T14:40:53;4.10;99.90
20726;DHT22;10524;48.132;8.518;2023-04-03T14:43:19;3.90;99.90
20726;DHT22;10524;48.132;8.518;2023-04-03T14:45:46;4.00;99.90
20726;DHT22;10524;48.132;8.518;2023-04-03T14:48:18;4.00;99.90
20726;DHT22;10524;48.132;8.518;2023-04-03T14:50:44;3.80;99.90
20726;DHT22;10524;48.132;8.518;2023-04-03T14:53:11;3.80;99.90
20726;DHT22;10524;48.132;8.518;2023-04-03T14:55:39;3.80;99.90
20726;DHT22;10524;48.132;8.518;2023-04-03T14:58:05;3.80;99.90
20726;DHT22;10524;48.132;8.518;2023-04-03T15:00:31;3.80;99.90
20726;DHT22;10524;48.132;8.518;2023-04-03T15:02:57;3.70;99.90
20726;DHT22;10524;48.132;8.518;2023-04-03T15:05:22;3.70;99.90
20726;DHT22;10524;48.132;8.518;2023-04-03T15:07:52;3.60;99.90
20726;DHT22;10524;48.132;8.518;2023-04-03T15:10:24;3.60;99.90
20726;DHT22;10524;48.132;8.518;2023-04-03T15:12:51;3.70;99.90
20726;DHT22;10524;48.132;8.518;2023-04-03T15:15:18;3.70;99.90
20726;DHT22;10524;48.132;8.518;2023-04-03T15:17:46;3.70;99.90
20726;DHT22;10524;48.132;8.518;2023-04-03T15:20:19;3.90;99.90
20726;DHT22;10524;48.132;8.518;2023-04-03T15:22:46;4.10;99.90
20726;DHT22;10524;48.132;8.518;2023-04-03T15:25:11;3.80;99.90
20726;DHT22;10524;48.132;8.518;2023-04-03T15:27:38;3.80;99.90
20726;DHT22;10524;48.132;8.518;2023-04-03T15:30:05;3.70;99.90
20726;DHT22;10524;48.132;8.518;2023-04-03T15:32:32;3.60;99.90
20726;DHT22;10524;48.132;8.518;2023-04-03T15:34:59;3.50;99.90
20726;DHT22;10524;48.132;8.518;2023-04-03T15:37:26;3.50;99.90
20726;DHT22;10524;48.132;8.518;2023-04-03T15:39:52;3.50;99.90
20726;DHT22;10524;48.132;8.518;2023-04-03T15:42:17;3.50;99.90
20726;DHT22;10524;48.132;8.518;2023-04-03T15:44:43;3.40;99.90
20726;DHT22;10524;48.132;8.518;2023-04-03T15:47:09;3.30;99.90
20726;DHT22;10524;48.132;8.518;2023-04-03T15:49:35;3.40;99.90
20726;DHT22;10524;48.132;8.518;2023-04-03T15:52:01;3.40;99.90
20726;DHT22;10524;48.132;8.518;2023-04-03T15:54:27;3.40;99.90
20726;DHT22;10524;48.132;8.518;2023-04-03T15:56:55;3.40;99.90
20726;DHT22;10524;48.132;8.518;2023-04-03T15:59:21;3.30;99.90
20726;DHT22;10524;48.132;8.518;2023-04-03T16:01:47;3.20;99.90
20726;DHT22;10524;48.132;8.518;2023-04-03T16:04:13;3.30;99.90
20726;DHT22;10524;48.132;8.518;2023-04-03T16:06:40;3.30;99.90
20726;DHT22;10524;48.132;8.518;2023-04-03T16:09:06;3.30;99.90
20726;DHT22;10524;48.132;8.518;2023-04-03T16:11:32;3.40;99.90
20726;DHT22;10524;48.132;8.518;2023-04-03T16:14:00;3.30;99.90
20726;DHT22;10524;48.132;8.518;2023-04-03T16:16:26;3.20;99.90
20726;DHT22;10524;48.132;8.518;2023-04-03T16:18:54;3.20;99.90
20726;DHT22;10524;48.132;8.518;2023-04-03T16:21:19;3.30;99.90
20726;DHT22;10524;48.132;8.518;2023-04-03T16:23:45;3.20;99.90
20726;DHT22;10524;48.132;8.518;2023-04-03T16:26:11;3.20;99.90
20726;DHT22;10524;48.132;8.518;2023-04-03T16:28:37;3.10;99.90
20726;DHT22;10524;48.132;8.518;2023-04-03T16:31:05;3.10;99.90
20726;DHT22;10524;48.132;8.518;2023-04-03T16:33:31;3.10;99.90
20726;DHT22;10524;48.132;8.518;2023-04-03T16:35:57;3.00;99.90
20726;DHT22;10524;48.132;8.518;2023-04-03T16:38:24;3.00;99.90
20726;DHT22;10524;48.132;8.518;2023-04-03T16:40:50;3.10;99.90
20726;DHT22;10524;48.132;8.518;2023-04-03T16:43:17;3.20;99.90
20726;DHT22;10524;48.132;8.518;2023-04-03T16:45:43;3.30;99.90
20726;DHT22;10524;48.132;8.518;2023-04-03T16:48:09;3.20;99.90
20726;DHT22;10524;48.132;8.518;2023-04-03T16:50:35;3.20;99.90
20726;DHT22;10524;48.132;8.518;2023-04-03T16:53:01;3.20;99.90
20726;DHT22;10524;48.132;8.518;2023-04-03T16:55:28;3.10;99.90
20726;DHT22;10524;48.132;8.518;2023-04-03T16:57:54;3.10;99.90
20726;DHT22;10524;48.132;8.518;2023-04-03T17:00:20;3.00;99.90
20726;DHT22;10524;48.132;8.518;2023-04-03T17:02:46;3.00;99.90
20726;DHT22;10524;48.132;8.518;2023-04-03T17:05:12;2.90;99.90
20726;DHT22;10524;48.132;8.518;2023-04-03T17:07:37;2.90;99.90
20726;DHT22;10524;48.132;8.518;2023-04-03T17:10:03;2.90;99.90
20726;DHT22;10524;48.132;8.518;2023-04-03T17:12:29;2.80;99.90
20726;DHT22;10524;48.132;8.518;2023-04-03T17:14:55;2.80;99.90
20726;DHT22;10524;48.132;8.518;2023-04-03T17:17:22;2.80;99.90